Time;durP1;ratioP1;P1;durP2;ratioP2;P2;SDS_P1;SDS_P2;PMS_P1;PMS_P2;Temp;Humidity;BMP_temperature;BMP_pressure;BME280_temperature;BME280_humidity;BME280_pressure;Samples;Min_cycle;Max_cycle;Signal;HPM_P1;HPM_P2
2023/12/19 00:00:10;;;;;;;;;;;;;;;19.80;47.09;98094.34;624284;227;62470;-69
2023/12/19 00:02:39;;;;;;;;;;;;;;;19.76;47.08;98098.53;624430;227;64774;-69
2023/12/19 00:05:10;;;;;;;;;;;;;;;19.80;47.08;98096.20;624513;227;62115;-69
2023/12/19 00:07:37;;;;;;;;;;;;;;;19.78;47.08;98099.12;624490;227;64796;-69
2023/12/19 00:10:05;;;;;;;;;;;;;;;19.79;47.04;98102.59;624435;227;64435;-69
2023/12/19 00:12:33;;;;;;;;;;;;;;;19.79;47.04;98100.73;624495;227;64269;-69
2023/12/19 00:15:00;;;;;;;;;;;;;;;19.81;47.06;98105.84;624463;227;64785;-69
2023/12/19 00:17:28;;;;;;;;;;;;;;;19.79;47.07;98098.06;624439;227;64267;-69
2023/12/19 00:19:56;;;;;;;;;;;;;;;19.78;47.05;98098.28;624410;227;64354;-69
2023/12/19 00:22:24;;;;;;;;;;;;;;;19.79;47.04;98105.25;624444;227;62379;-69
2023/12/19 00:24:52;;;;;;;;;;;;;;;19.77;47.04;98107.34;624440;227;64497;-69
2023/12/19 00:27:20;;;;;;;;;;;;;;;19.79;47.02;98111.39;624491;227;64212;-69
2023/12/19 00:29:47;;;;;;;;;;;;;;;19.79;47.05;98113.26;624451;227;63288;-69
2023/12/19 00:32:14;;;;;;;;;;;;;;;19.78;47.04;98111.62;624307;227;64488;-69
2023/12/19 00:34:42;;;;;;;;;;;;;;;19.79;47.07;98115.92;624342;227;63987;-69
2023/12/19 00:37:09;;;;;;;;;;;;;;;19.78;47.05;98116.95;624283;227;64609;-69
2023/12/19 00:39:37;;;;;;;;;;;;;;;19.79;47.03;98116.73;624326;227;64402;-69
2023/12/19 00:42:04;;;;;;;;;;;;;;;19.79;47.02;98115.92;624313;227;64153;-69
2023/12/19 00:44:36;;;;;;;;;;;;;;;19.80;47.00;98121.01;624337;227;64545;-69
2023/12/19 00:47:01;;;;;;;;;;;;;;;19.81;46.99;98124.52;624230;227;62123;-69
2023/12/19 00:49:29;;;;;;;;;;;;;;;19.78;47.01;98114.28;624289;227;62203;-76
2023/12/19 00:51:57;;;;;;;;;;;;;;;19.80;47.01;98117.53;624330;227;62458;-75
2023/12/19 00:54:24;;;;;;;;;;;;;;;19.79;47.01;98126.59;624367;227;62016;-75
2023/12/19 00:56:52;;;;;;;;;;;;;;;19.79;47.03;98116.73;624306;227;62047;-75
2023/12/19 00:59:20;;;;;;;;;;;;;;;19.81;47.02;98124.52;624311;227;62433;-75
2023/12/19 01:01:48;;;;;;;;;;;;;;;19.79;47.02;98111.39;624319;227;64427;-75
2023/12/19 01:04:17;;;;;;;;;;;;;;;19.78;47.03;98108.95;624285;227;64273;-75
2023/12/19 01:06:44;;;;;;;;;;;;;;;19.78;47.01;98109.79;624321;227;65101;-75
2023/12/19 01:09:12;;;;;;;;;;;;;;;19.77;47.00;98108.14;624341;227;64396;-75
2023/12/19 01:11:40;;;;;;;;;;;;;;;19.78;46.99;98111.62;624303;227;64172;-75
2023/12/19 01:14:08;;;;;;;;;;;;;;;19.81;47.01;98113.84;624323;227;64773;-75
2023/12/19 01:16:35;;;;;;;;;;;;;;;19.78;47.01;98103.62;624313;227;63017;-70
2023/12/19 01:19:03;;;;;;;;;;;;;;;19.79;47.00;98105.25;622640;227;64250;-70
2023/12/19 01:21:30;;;;;;;;;;;;;;;19.78;46.95;98103.62;619056;229;64429;-70
2023/12/19 01:23:58;;;;;;;;;;;;;;;19.79;46.95;98107.92;619093;229;64411;-70
2023/12/19 01:26:25;;;;;;;;;;;;;;;19.78;46.96;98103.62;618984;229;64233;-70
2023/12/19 01:28:53;;;;;;;;;;;;;;;19.77;46.97;98104.67;619025;229;64535;-69
2023/12/19 01:31:20;;;;;;;;;;;;;;;19.79;46.96;98099.92;618996;229;64533;-70
2023/12/19 01:33:48;;;;;;;;;;;;;;;19.79;46.98;98098.06;619021;229;64274;-70
2023/12/19 01:36:15;;;;;;;;;;;;;;;19.77;47.01;98094.01;619032;229;64570;-70
2023/12/19 01:38:43;;;;;;;;;;;;;;;19.78;46.97;98092.95;619067;229;64439;-70
2023/12/19 01:41:10;;;;;;;;;;;;;;;19.79;46.99;98099.92;619053;229;64218;-70
2023/12/19 01:43:38;;;;;;;;;;;;;;;19.78;46.96;98100.95;618978;229;64557;-76
2023/12/19 01:46:05;;;;;;;;;;;;;;;19.78;46.99;98096.45;618996;229;64442;-75
2023/12/19 01:48:33;;;;;;;;;;;;;;;19.78;46.98;98101.78;619037;229;64194;-76
2023/12/19 01:51:00;;;;;;;;;;;;;;;19.79;46.96;98106.06;619007;229;64591;-70
2023/12/19 01:53:28;;;;;;;;;;;;;;;19.78;46.96;98104.45;619059;229;64449;-70
2023/12/19 01:55:56;;;;;;;;;;;;;;;19.78;46.99;98098.28;619036;229;64136;-70
2023/12/19 01:58:24;;;;;;;;;;;;;;;19.77;46.95;98092.14;618964;229;62578;-70
2023/12/19 02:00:52;;;;;;;;;;;;;;;19.78;46.98;98096.45;618933;229;62202;-70
2023/12/19 02:03:20;;;;;;;;;;;;;;;19.77;46.97;98092.14;619086;229;61931;-70
2023/12/19 02:05:49;;;;;;;;;;;;;;;19.76;46.96;98090.53;619049;229;64751;-70
2023/12/19 02:08:17;;;;;;;;;;;;;;;19.76;46.96;98095.06;619025;229;62241;-70
2023/12/19 02:10:44;;;;;;;;;;;;;;;19.78;46.96;98091.12;618980;229;62060;-70
2023/12/19 02:13:11;;;;;;;;;;;;;;;19.78;46.96;98092.95;619020;229;62393;-70
2023/12/19 02:15:39;;;;;;;;;;;;;;;19.76;46.95;98090.53;619014;229;62254;-70
2023/12/19 02:18:16;;;;;;;;;;;;;;;19.77;46.94;98081.47;619058;229;63019;-70
2023/12/19 02:20:44;;;;;;;;;;;;;;;19.77;46.95;98086.81;624977;227;62505;-70
2023/12/19 02:23:12;;;;;;;;;;;;;;;19.78;46.96;98076.95;624961;227;62178;-67
2023/12/19 02:25:40;;;;;;;;;;;;;;;19.77;46.94;98080.67;625042;227;62170;-67
2023/12/19 02:28:08;;;;;;;;;;;;;;;19.77;46.94;98075.34;624993;227;64789;-70
2023/12/19 02:30:35;;;;;;;;;;;;;;;19.77;46.93;98067.34;625053;227;64516;-70
2023/12/19 02:33:03;;;;;;;;;;;;;;;19.78;46.93;98064.45;625012;227;62941;-70
2023/12/19 02:35:31;;;;;;;;;;;;;;;19.76;46.94;98057.72;624998;227;63304;-70
2023/12/19 02:37:58;;;;;;;;;;;;;;;19.74;46.93;98061.42;624965;227;61777;-69
2023/12/19 02:40:26;;;;;;;;;;;;;;;19.76;46.93;98055.06;625007;227;63884;-70
2023/12/19 02:42:53;;;;;;;;;;;;;;;19.78;46.93;98060.94;625045;227;64569;-69
2023/12/19 02:45:21;;;;;;;;;;;;;;;19.77;46.89;98062.00;625038;227;64473;-69
2023/12/19 02:47:48;;;;;;;;;;;;;;;19.74;46.95;98048.08;625044;227;64239;-70
2023/12/19 02:50:16;;;;;;;;;;;;;;;19.74;46.93;98050.75;624967;227;62457;-70
2023/12/19 02:52:43;;;;;;;;;;;;;;;19.77;46.93;98043.33;624990;227;64363;-69
2023/12/19 02:55:11;;;;;;;;;;;;;;;19.76;46.90;98047.05;625019;227;64181;-69
2023/12/19 02:57:38;;;;;;;;;;;;;;;19.76;46.88;98041.72;625041;227;64758;-69
2023/12/19 03:00:06;;;;;;;;;;;;;;;19.74;46.88;98034.75;625003;227;64460;-69
2023/12/19 03:02:34;;;;;;;;;;;;;;;19.76;46.87;98047.86;624979;227;64173;-70
2023/12/19 03:05:01;;;;;;;;;;;;;;;19.74;46.87;98045.41;624973;227;62442;-70
2023/12/19 03:07:28;;;;;;;;;;;;;;;19.78;46.88;98059.11;624984;227;62271;-70
2023/12/19 03:09:56;;;;;;;;;;;;;;;19.76;46.87;98057.72;625072;227;64155;-70
2023/12/19 03:12:23;;;;;;;;;;;;;;;19.77;46.87;98056.66;624994;227;64651;-70
2023/12/19 03:14:51;;;;;;;;;;;;;;;19.77;46.86;98064.66;624991;227;64478;-69
2023/12/19 03:17:18;;;;;;;;;;;;;;;19.77;46.87;98054.00;625005;227;64355;-70
2023/12/19 03:19:46;;;;;;;;;;;;;;;19.74;46.89;98045.41;621273;227;62462;-70
2023/12/19 03:22:13;;;;;;;;;;;;;;;19.76;46.86;98055.06;619027;229;64406;-70
2023/12/19 03:24:41;;;;;;;;;;;;;;;19.78;46.86;98053.77;619022;229;64139;-70
2023/12/19 03:27:08;;;;;;;;;;;;;;;19.76;46.88;98050.53;618963;229;64717;-70
2023/12/19 03:29:36;;;;;;;;;;;;;;;19.74;46.89;98039.28;618967;229;65477;-70
2023/12/19 03:32:03;;;;;;;;;;;;;;;19.76;46.86;98049.72;618907;229;65163;-70
2023/12/19 03:34:31;;;;;;;;;;;;;;;19.75;46.82;98046.22;618990;229;64553;-75
2023/12/19 03:36:58;;;;;;;;;;;;;;;19.74;46.83;98033.95;618914;229;66412;-74
2023/12/19 03:39:26;;;;;;;;;;;;;;;19.76;46.86;98033.72;618936;229;66063;-75
2023/12/19 03:41:53;;;;;;;;;;;;;;;19.75;46.87;98030.22;618899;229;64677;-75
2023/12/19 03:44:21;;;;;;;;;;;;;;;19.72;46.86;98031.53;618935;229;63074;-75
2023/12/19 03:46:48;;;;;;;;;;;;;;;19.73;46.82;98037.67;618964;229;62919;-75
2023/12/19 03:49:15;;;;;;;;;;;;;;;19.74;46.82;98040.08;618929;229;62482;-75
2023/12/19 03:51:43;;;;;;;;;;;;;;;19.73;46.82;98032.34;618708;229;63048;-75
2023/12/19 03:54:10;;;;;;;;;;;;;;;19.76;46.83;98033.72;618708;229;62635;-75
2023/12/19 03:56:38;;;;;;;;;;;;;;;19.74;46.82;98034.75;618710;229;62540;-69
2023/12/19 03:59:05;;;;;;;;;;;;;;;19.74;46.82;98033.95;618712;229;63016;-75
2023/12/19 04:01:33;;;;;;;;;;;;;;;19.74;46.85;98034.75;618712;229;63199;-75
2023/12/19 04:04:00;;;;;;;;;;;;;;;19.76;46.81;98039.05;618625;229;64591;-75
2023/12/19 04:06:28;;;;;;;;;;;;;;;19.73;46.81;98022.47;618696;229;63048;-75
2023/12/19 04:08:55;;;;;;;;;;;;;;;19.73;46.81;98027.80;618743;229;63759;-75
2023/12/19 04:11:23;;;;;;;;;;;;;;;19.73;46.84;98029.67;618734;229;64569;-75
2023/12/19 04:13:50;;;;;;;;;;;;;;;19.76;46.83;98031.05;618740;229;65600;-75
2023/12/19 04:16:17;;;;;;;;;;;;;;;19.74;46.81;98018.75;618678;229;62929;-75
2023/12/19 04:18:45;;;;;;;;;;;;;;;19.74;46.82;98020.61;619684;227;62435;-75
2023/12/19 04:21:12;;;;;;;;;;;;;;;19.73;46.79;98009.14;623973;227;62690;-75
2023/12/19 04:23:40;;;;;;;;;;;;;;;19.74;46.80;98016.08;623953;227;62900;-75
2023/12/19 04:26:07;;;;;;;;;;;;;;;19.74;46.78;98013.41;623991;227;63189;-75
2023/12/19 04:28:35;;;;;;;;;;;;;;;19.72;46.75;98017.36;623882;227;65731;-75
2023/12/19 04:31:02;;;;;;;;;;;;;;;19.73;46.75;98017.14;623983;227;65033;-75
2023/12/19 04:33:30;;;;;;;;;;;;;;;19.73;46.75;98011.00;623958;227;64540;-75
2023/12/19 04:35:57;;;;;;;;;;;;;;;19.73;46.78;98011.00;623996;227;65413;-75
2023/12/19 04:38:25;;;;;;;;;;;;;;;19.74;46.75;98013.41;623946;227;65018;-75
2023/12/19 04:40:52;;;;;;;;;;;;;;;19.75;46.73;98019.55;623939;227;64645;-75
2023/12/19 04:43:20;;;;;;;;;;;;;;;19.73;46.74;98011.00;623958;227;65360;-75
2023/12/19 04:45:47;;;;;;;;;;;;;;;19.71;46.73;98005.09;623982;227;62920;-75
2023/12/19 04:48:14;;;;;;;;;;;;;;;19.74;46.72;98012.61;623984;227;64411;-69
2023/12/19 04:50:42;;;;;;;;;;;;;;;19.73;46.74;98014.47;623908;227;65421;-69
2023/12/19 04:53:09;;;;;;;;;;;;;;;19.72;46.74;98015.53;623794;227;64858;-69
2023/12/19 04:55:37;;;;;;;;;;;;;;;19.73;46.72;98017.14;624145;227;64577;-69
2023/12/19 04:58:04;;;;;;;;;;;;;;;19.72;46.71;98018.20;624184;227;65696;-69
2023/12/19 05:00:32;;;;;;;;;;;;;;;19.72;46.72;98020.86;624201;227;62923;-69
2023/12/19 05:03:00;;;;;;;;;;;;;;;19.73;46.72;98024.33;624230;227;63313;-69
2023/12/19 05:05:27;;;;;;;;;;;;;;;19.73;46.70;98030.47;624183;227;65450;-69
2023/12/19 05:07:54;;;;;;;;;;;;;;;19.72;46.70;98026.20;624165;227;64778;-69
2023/12/19 05:10:22;;;;;;;;;;;;;;;19.71;46.72;98013.89;624176;227;64636;-69
2023/12/19 05:12:49;;;;;;;;;;;;;;;19.73;46.71;98025.14;624211;227;65297;-68
2023/12/19 05:15:17;;;;;;;;;;;;;;;19.72;46.71;98026.20;624214;227;64086;-68
2023/12/19 05:17:45;;;;;;;;;;;;;;;19.72;46.70;98026.20;624194;227;64428;-68
2023/12/19 05:20:12;;;;;;;;;;;;;;;19.71;46.70;98029.89;619963;227;65551;-68
2023/12/19 05:22:40;;;;;;;;;;;;;;;19.73;46.69;98033.14;618920;229;65957;-68
2023/12/19 05:25:07;;;;;;;;;;;;;;;19.73;46.67;98043.00;618954;229;64577;-69
2023/12/19 05:27:36;;;;;;;;;;;;;;;19.72;46.69;98031.53;618921;229;63025;-68
2023/12/19 05:30:04;;;;;;;;;;;;;;;19.72;46.69;98034.20;618997;229;65152;-69
2023/12/19 05:32:32;;;;;;;;;;;;;;;19.72;46.70;98038.70;618974;229;65554;-68
2023/12/19 05:34:59;;;;;;;;;;;;;;;19.70;46.65;98033.62;618909;229;65027;-68
2023/12/19 05:37:26;;;;;;;;;;;;;;;19.71;46.66;98035.23;618699;229;62983;-68
2023/12/19 05:39:55;;;;;;;;;;;;;;;19.73;46.66;98048.34;618703;229;62689;-68
2023/12/19 05:42:22;;;;;;;;;;;;;;;19.72;46.66;98041.36;618732;229;64183;-68
2023/12/19 05:44:50;;;;;;;;;;;;;;;19.70;46.66;98033.62;618763;229;62975;-68
2023/12/19 05:47:18;;;;;;;;;;;;;;;19.70;46.65;98049.63;618724;229;64852;-68
2023/12/19 05:49:45;;;;;;;;;;;;;;;19.72;46.67;98050.20;618662;229;65267;-68
2023/12/19 05:52:13;;;;;;;;;;;;;;;19.71;46.63;98050.42;618770;229;62863;-68
2023/12/19 05:54:40;;;;;;;;;;;;;;;19.71;46.63;98061.89;618799;229;64376;-68
2023/12/19 05:57:08;;;;;;;;;;;;;;;19.72;46.61;98062.70;618755;229;65556;-68
2023/12/19 05:59:35;;;;;;;;;;;;;;;19.72;46.61;98063.53;618707;229;65031;-68
2023/12/19 06:02:03;;;;;;;;;;;;;;;19.69;46.63;98063.98;618667;229;62521;-67
2023/12/19 06:04:30;;;;;;;;;;;;;;;19.71;46.61;98075.23;618688;229;62525;-68
2023/12/19 06:06:58;;;;;;;;;;;;;;;19.68;46.60;98067.70;618781;229;62972;-68
2023/12/19 06:09:25;;;;;;;;;;;;;;;19.70;46.63;98073.63;618718;229;64768;-68
2023/12/19 06:11:53;;;;;;;;;;;;;;;19.67;46.59;98063.44;618670;229;65209;-68
2023/12/19 06:14:21;;;;;;;;;;;;;;;19.71;46.61;98067.23;618689;229;63131;-68
2023/12/19 06:16:48;;;;;;;;;;;;;;;19.70;46.57;98065.63;618709;229;64709;-67
2023/12/19 06:19:16;;;;;;;;;;;;;;;19.69;46.60;98060.52;618750;227;65469;-68
2023/12/19 06:21:43;;;;;;;;;;;;;;;19.69;46.57;98063.98;618780;229;64413;-68
2023/12/19 06:24:11;;;;;;;;;;;;;;;19.69;46.58;98057.84;618662;229;62522;-68
2023/12/19 06:26:38;;;;;;;;;;;;;;;19.71;46.57;98072.56;618754;229;63618;-68
2023/12/19 06:29:08;;;;;;;;;;;;;;;19.70;46.58;98054.95;618655;229;65260;-68
2023/12/19 06:31:36;;;;;;;;;;;;;;;19.71;46.56;98051.23;618718;229;64618;-68
2023/12/19 06:34:04;;;;;;;;;;;;;;;19.70;46.55;98038.95;618670;228;64948;-68
2023/12/19 06:36:32;;;;;;;;;;;;;;;19.71;46.58;98034.42;618652;229;64871;-69
2023/12/19 06:39:00;;;;;;;;;;;;;;;19.67;46.58;98017.27;618739;229;63275;-69
2023/12/19 06:41:28;;;;;;;;;;;;;;;19.70;46.56;98020.28;618719;229;65047;-69
2023/12/19 06:43:56;;;;;;;;;;;;;;;19.69;46.52;98023.17;618651;229;65005;-69
2023/12/19 06:46:23;;;;;;;;;;;;;;;19.69;46.54;98037.31;618760;229;64374;-69
2023/12/19 06:48:51;;;;;;;;;;;;;;;19.69;46.54;98045.31;618639;229;62731;-69
2023/12/19 06:51:25;;;;;;;;;;;;;;;19.67;46.56;98028.77;618737;229;62960;-74
2023/12/19 06:53:56;;;;;;;;;;;;;;;19.67;46.53;98034.09;618690;229;64588;-74
2023/12/19 06:56:28;;;;;;;;;;;;;;;19.70;46.55;98035.48;618670;229;65805;-75
2023/12/19 06:58:55;;;;;;;;;;;;;;;19.69;46.57;98036.51;618719;229;63949;-75
2023/12/19 07:01:24;;;;;;;;;;;;;;;19.69;46.54;98042.65;618676;229;62436;-75
2023/12/19 07:03:52;;;;;;;;;;;;;;;19.69;46.54;98037.31;618653;229;65440;-75
2023/12/19 07:06:19;;;;;;;;;;;;;;;19.69;46.54;98042.65;618585;229;62902;-73
2023/12/19 07:08:47;;;;;;;;;;;;;;;19.69;46.55;98047.17;618685;229;62497;-74
2023/12/19 07:11:15;;;;;;;;;;;;;;;19.69;46.54;98047.98;618723;229;65369;-74
2023/12/19 07:13:43;;;;;;;;;;;;;;;19.66;46.48;98045.80;618364;229;65163;-75
2023/12/19 07:16:14;;;;;;;;;;;;;;;19.66;46.51;98034.32;618309;229;61267;-75
2023/12/19 07:18:42;;;;;;;;;;;;;;;19.66;46.31;98036.98;618530;227;63087;-73
2023/12/19 07:21:21;;;;;;;;;;;;;;;19.63;46.10;98038.23;618545;229;65331;-71
2023/12/19 07:23:50;;;;;;;;;;;;;;;19.62;52.68;98033.97;618462;228;65754;-74
2023/12/19 07:26:27;;;;;;;;;;;;;;;19.62;46.61;98033.97;618583;229;63310;-74
2023/12/19 07:29:02;;;;;;;;;;;;;;;19.60;47.09;98033.38;618662;229;65238;-71
2023/12/19 07:31:26;;;;;;;;;;;;;;;19.65;47.40;98049.48;618255;228;64705;-70
2023/12/19 07:33:57;;;;;;;;;;;;;;;19.64;46.51;98042.55;618613;229;65425;-73
2023/12/19 07:36:25;;;;;;;;;;;;;;;19.64;46.02;98041.71;618533;229;62987;-70
2023/12/19 07:38:53;;;;;;;;;;;;;;;19.62;45.85;98031.30;618632;229;62373;-71
2023/12/19 07:41:21;;;;;;;;;;;;;;;19.62;45.19;98023.30;618722;229;62982;-73
2023/12/19 07:43:48;;;;;;;;;;;;;;;19.64;45.10;98034.55;618643;229;65492;-72
2023/12/19 07:46:16;;;;;;;;;;;;;;;19.61;45.03;98034.99;618663;229;64576;-71
2023/12/19 07:48:43;;;;;;;;;;;;;;;19.62;45.11;98028.63;618568;229;65668;-73
2023/12/19 07:51:13;;;;;;;;;;;;;;;19.64;45.05;98037.21;618625;229;62990;-74
2023/12/19 07:53:40;;;;;;;;;;;;;;;19.64;45.15;98029.21;618278;228;62442;-75
2023/12/19 07:56:08;;;;;;;;;;;;;;;19.64;45.16;98031.88;617540;229;65535;-75
2023/12/19 07:58:36;;;;;;;;;;;;;;;19.68;45.20;98029.56;618673;229;62889;-75
2023/12/19 08:01:04;;;;;;;;;;;;;;;19.66;44.86;98026.32;614043;229;65778;-74
2023/12/19 08:03:33;;;;;;;;;;;;;;;19.66;45.25;98015.66;613972;229;64830;-76
2023/12/19 08:06:01;;;;;;;;;;;;;;;19.65;45.07;98012.16;617161;229;65708;-73
2023/12/19 08:08:28;;;;;;;;;;;;;;;19.66;45.12;98016.45;611884;232;64794;-69
2023/12/19 08:10:56;;;;;;;;;;;;;;;19.65;45.05;98004.16;611868;232;65651;-74
2023/12/19 08:13:24;;;;;;;;;;;;;;;19.65;44.92;98004.16;611880;229;65021;-72
2023/12/19 08:15:52;;;;;;;;;;;;;;;19.67;44.95;97996.77;614614;229;64565;-73
2023/12/19 08:18:20;;;;;;;;;;;;;;;19.67;44.94;98002.09;615861;227;65640;-74
2023/12/19 08:20:48;;;;;;;;;;;;;;;19.68;44.86;97994.90;618253;229;66115;-75
2023/12/19 08:23:15;;;;;;;;;;;;;;;19.67;44.88;97985.26;615877;229;62413;-75
2023/12/19 08:25:43;;;;;;;;;;;;;;;19.66;44.85;97981.80;616843;229;63039;-72
2023/12/19 08:28:11;;;;;;;;;;;;;;;19.67;45.02;97980.77;618908;229;65344;-72
2023/12/19 08:30:42;;;;;;;;;;;;;;;19.67;45.55;97980.77;618936;229;64701;-71
2023/12/19 08:33:09;;;;;;;;;;;;;;;19.68;44.86;97981.56;612911;229;65844;-75
2023/12/19 08:35:37;;;;;;;;;;;;;;;19.68;44.94;97976.23;612012;232;63082;-75
2023/12/19 08:38:04;;;;;;;;;;;;;;;19.68;45.36;97977.03;611907;232;64554;-69
2023/12/19 08:40:32;;;;;;;;;;;;;;;19.68;45.49;97970.90;617133;229;63037;-73
2023/12/19 08:42:59;;;;;;;;;;;;;;;19.67;44.85;97964.77;617646;229;62869;-72
2023/12/19 08:45:27;;;;;;;;;;;;;;;19.69;44.87;97967.17;618344;229;62419;-74
2023/12/19 08:47:54;;;;;;;;;;;;;;;19.69;44.91;97967.98;618463;229;65484;-72
2023/12/19 08:50:22;;;;;;;;;;;;;;;19.71;45.04;97965.89;618733;229;65109;-78
2023/12/19 08:52:51;;;;;;;;;;;;;;;19.70;44.84;97964.28;618571;229;64427;-75
2023/12/19 08:55:18;;;;;;;;;;;;;;;19.70;44.84;97958.95;618501;229;65476;-75
2023/12/19 08:57:46;;;;;;;;;;;;;;;19.70;45.05;97958.95;618661;229;65571;-75
2023/12/19 09:00:21;;;;;;;;;;;;;;;19.70;45.48;97952.81;618643;229;64634;-74
2023/12/19 09:02:44;;;;;;;;;;;;;;;19.69;45.77;97951.97;618347;229;63075;-75
2023/12/19 09:05:12;;;;;;;;;;;;;;;19.67;45.45;97940.77;618625;229;65029;-75
2023/12/19 09:07:40;;;;;;;;;;;;;;;19.69;45.38;97938.64;618519;229;62508;-74
2023/12/19 09:10:08;;;;;;;;;;;;;;;19.68;45.19;97936.23;618681;229;63350;-74
2023/12/19 09:12:36;;;;;;;;;;;;;;;19.67;44.94;97929.26;618606;229;65243;-74
2023/12/19 09:15:05;;;;;;;;;;;;;;;19.69;44.87;97930.64;618571;229;64547;-74
2023/12/19 09:17:32;;;;;;;;;;;;;;;19.67;45.76;97927.42;618630;229;65423;-71
2023/12/19 09:20:04;;;;;;;;;;;;;;;19.70;46.24;97924.28;618493;227;64980;-75
2023/12/19 09:22:30;;;;;;;;;;;;;;;19.68;45.38;97918.37;618528;228;64680;-75
2023/12/19 09:24:57;;;;;;;;;;;;;;;19.69;45.28;97911.17;618666;229;62328;-74
2023/12/19 09:27:25;;;;;;;;;;;;;;;19.69;45.10;97913.84;618655;229;62955;-74
2023/12/19 09:29:52;;;;;;;;;;;;;;;19.68;45.20;97902.36;618607;229;64537;-70
2023/12/19 09:32:20;;;;;;;;;;;;;;;19.67;44.90;97899.92;618375;229;65391;-76
2023/12/19 09:34:47;;;;;;;;;;;;;;;19.69;44.76;97893.30;618741;229;65414;-75
2023/12/19 09:37:15;;;;;;;;;;;;;;;19.70;44.79;97894.94;618843;229;64787;-76
2023/12/19 09:39:44;;;;;;;;;;;;;;;19.72;44.81;97890.18;618898;229;65498;-73
2023/12/19 09:42:11;;;;;;;;;;;;;;;19.70;44.78;97886.94;618888;229;65096;-73
2023/12/19 09:44:40;;;;;;;;;;;;;;;19.72;44.83;97887.52;618462;229;64558;-71
2023/12/19 09:47:07;;;;;;;;;;;;;;;19.73;44.85;97883.78;618589;229;63380;-73
2023/12/19 09:49:39;;;;;;;;;;;;;;;19.71;44.90;97880.55;618723;229;63173;-73
2023/12/19 09:52:06;;;;;;;;;;;;;;;19.72;45.00;97876.84;618624;229;62696;-73
2023/12/19 09:54:35;;;;;;;;;;;;;;;19.73;45.03;97872.31;618580;229;66563;-76
2023/12/19 09:57:03;;;;;;;;;;;;;;;19.71;45.08;97867.21;618640;229;63172;-72
2023/12/19 09:59:31;;;;;;;;;;;;;;;19.71;45.08;97858.41;618588;229;62394;-73
2023/12/19 10:01:58;;;;;;;;;;;;;;;19.72;45.20;97860.84;618743;229;65540;-72
2023/12/19 10:04:27;;;;;;;;;;;;;;;19.72;45.38;97850.18;618723;229;64931;-72
2023/12/19 10:06:55;;;;;;;;;;;;;;;19.72;45.32;97855.52;618546;229;62557;-73
2023/12/19 10:09:23;;;;;;;;;;;;;;;19.73;45.40;97857.12;618666;229;65223;-70
2023/12/19 10:12:04;;;;;;;;;;;;;;;19.71;45.39;97842.41;618650;229;65618;-72
2023/12/19 10:14:33;;;;;;;;;;;;;;;19.71;45.55;97845.88;618628;229;62814;-73
2023/12/19 10:17:04;;;;;;;;;;;;;;;19.73;45.29;97841.12;618667;229;66355;-73
2023/12/19 10:19:33;;;;;;;;;;;;;;;19.73;45.36;97834.98;621176;227;66067;-74
2023/12/19 10:22:07;;;;;;;;;;;;;;;19.71;45.28;97827.20;623904;227;64529;-72
2023/12/19 10:24:34;;;;;;;;;;;;;;;19.72;45.24;97825.34;623877;227;63068;-71
2023/12/19 10:27:03;;;;;;;;;;;;;;;19.71;45.25;97821.87;623883;227;62923;-73
2023/12/19 10:29:36;;;;;;;;;;;;;;;19.70;45.26;97808.80;624013;227;64770;-70
2023/12/19 10:32:01;;;;;;;;;;;;;;;19.73;45.27;97818.98;623688;227;64870;-68
2023/12/19 10:34:28;;;;;;;;;;;;;;;19.70;45.19;97809.60;623363;227;65025;-72
2023/12/19 10:36:57;;;;;;;;;;;;;;;19.71;45.24;97805.87;623813;227;64680;-71
2023/12/19 10:39:25;;;;;;;;;;;;;;;19.70;45.19;97793.61;623381;227;63245;-71
2023/12/19 10:41:54;;;;;;;;;;;;;;;19.72;45.42;97790.67;623842;227;64799;-71
2023/12/19 10:44:22;;;;;;;;;;;;;;;19.74;45.23;97789.38;623409;227;64689;-71
2023/12/19 10:46:50;;;;;;;;;;;;;;;19.69;45.23;97770.63;623913;227;62817;-72
2023/12/19 10:49:18;;;;;;;;;;;;;;;19.72;45.25;97772.01;623870;227;62736;-71
2023/12/19 10:51:46;;;;;;;;;;;;;;;19.71;45.03;97763.20;623880;227;62428;-74
2023/12/19 10:54:15;;;;;;;;;;;;;;;19.74;45.40;97760.05;623867;227;58963;-75
2023/12/19 10:56:54;;;;;;;;;;;;;;;19.76;45.08;97761.68;623799;227;65519;-73
2023/12/19 10:59:26;;;;;;;;;;;;;;;19.78;44.94;97756.89;623860;227;64530;-72
2023/12/19 11:01:54;;;;;;;;;;;;;;;19.77;44.99;97757.95;623549;227;65563;-74
2023/12/19 11:04:23;;;;;;;;;;;;;;;19.77;46.01;97749.95;624139;227;65056;-73
2023/12/19 11:06:52;;;;;;;;;;;;;;;19.76;45.30;97738.48;624073;227;62621;-73
2023/12/19 11:09:21;;;;;;;;;;;;;;;19.73;45.37;97731.77;623867;227;63111;-73
2023/12/19 11:11:49;;;;;;;;;;;;;;;19.74;45.45;97725.38;623992;227;65312;-73
2023/12/19 11:14:18;;;;;;;;;;;;;;;19.77;45.85;97720.61;624065;227;64502;-73
2023/12/19 11:16:53;;;;;;;;;;;;;;;19.77;46.33;97724.08;623951;227;65663;-73
2023/12/19 11:19:22;;;;;;;;;;;;;;;19.73;45.92;97713.11;624273;226;64911;-74
2023/12/19 11:22:06;;;;;;;;;;;;;;;19.74;45.82;97712.04;625913;226;64740;-74
2023/12/19 11:24:37;;;;;;;;;;;;;;;19.77;45.73;97715.28;623219;227;63081;-74
2023/12/19 11:27:16;;;;;;;;;;;;;;;19.77;45.67;97704.61;623305;227;65515;-74
2023/12/19 11:29:44;;;;;;;;;;;;;;;19.74;45.70;97705.91;623254;227;62347;-73
2023/12/19 11:32:29;;;;;;;;;;;;;;;19.76;45.72;97701.14;623230;227;65652;-74
2023/12/19 11:35:10;;;;;;;;;;;;;;;19.77;45.69;97693.94;623319;227;64913;-75
2023/12/19 11:37:37;;;;;;;;;;;;;;;19.76;45.73;97687.80;623302;227;65078;-74
2023/12/19 11:40:06;;;;;;;;;;;;;;;19.77;45.73;97694.74;623351;227;63236;-75
2023/12/19 11:42:41;;;;;;;;;;;;;;;19.77;45.72;97685.94;623406;227;65179;-74
2023/12/19 11:45:19;;;;;;;;;;;;;;;19.77;45.72;97683.27;623412;227;64261;-71
2023/12/19 11:47:51;;;;;;;;;;;;;;;19.73;45.71;97670.44;623291;227;62715;-73
2023/12/19 11:50:37;;;;;;;;;;;;;;;19.77;45.71;97680.61;623380;227;63007;-73
2023/12/19 11:53:05;;;;;;;;;;;;;;;19.76;45.74;97677.14;623236;227;64890;-73
2023/12/19 11:55:32;;;;;;;;;;;;;;;19.78;45.81;97680.38;623369;227;65761;-72
2023/12/19 11:58:09;;;;;;;;;;;;;;;19.77;45.82;97670.73;623382;227;65055;-72
2023/12/19 12:00:36;;;;;;;;;;;;;;;19.75;45.86;97678.17;623324;227;64664;-72
2023/12/19 12:03:10;;;;;;;;;;;;;;;19.77;45.95;97676.08;623330;227;63340;-72
2023/12/19 12:05:38;;;;;;;;;;;;;;;19.78;45.88;97679.54;623340;227;65325;-74
2023/12/19 12:08:05;;;;;;;;;;;;;;;19.77;45.76;97680.61;623289;227;64557;-73
2023/12/19 12:10:33;;;;;;;;;;;;;;;19.74;45.69;97672.04;623385;227;65647;-74
2023/12/19 12:13:04;;;;;;;;;;;;;;;19.78;45.65;97677.70;623354;227;63062;-74
2023/12/19 12:15:31;;;;;;;;;;;;;;;19.76;45.60;97676.34;623290;227;64796;-74
2023/12/19 12:18:02;;;;;;;;;;;;;;;19.79;45.62;97673.17;623354;227;65471;-73
2023/12/19 12:20:34;;;;;;;;;;;;;;;19.75;45.61;97659.50;623314;227;63295;-73
2023/12/19 12:22:59;;;;;;;;;;;;;;;19.77;45.63;97661.94;623702;227;62618;-74
2023/12/19 12:25:27;;;;;;;;;;;;;;;19.81;45.64;97676.41;624056;227;65224;-74
2023/12/19 12:27:56;;;;;;;;;;;;;;;19.79;45.67;97665.17;624111;227;65249;-74
2023/12/19 12:30:24;;;;;;;;;;;;;;;19.78;45.68;97661.70;623724;227;64559;-68
2023/12/19 12:32:52;;;;;;;;;;;;;;;19.80;45.69;97666.77;624137;227;63114;-68
2023/12/19 12:35:32;;;;;;;;;;;;;;;19.79;45.70;97662.51;624059;227;64965;-68
2023/12/19 12:37:57;;;;;;;;;;;;;;;19.79;45.71;97657.17;622979;227;62442;-68
2023/12/19 12:40:26;;;;;;;;;;;;;;;19.77;45.72;97648.60;624155;227;65462;-68
2023/12/19 12:42:55;;;;;;;;;;;;;;;19.79;45.75;97649.17;624018;227;63298;-68
2023/12/19 12:45:22;;;;;;;;;;;;;;;19.80;45.78;97648.11;619627;227;64672;-69
2023/12/19 12:47:50;;;;;;;;;;;;;;;19.80;45.79;97638.23;624155;227;65484;-67
2023/12/19 12:50:20;;;;;;;;;;;;;;;19.79;45.79;97646.50;624058;227;62988;-68
2023/12/19 12:52:48;;;;;;;;;;;;;;;19.78;45.87;97635.03;624145;227;65560;-68